Strona główna
METAR-TAF:

METAR-TAF

Lotnisko :

Luni

Sarzana, Włochy

Szerokość geograficzna: 44-05N, Długość geograficzna: 009-59E, wysokość: 9 m

Aktualna obserwacja pogody

Raport powstał 1 godzina i 14 minut temu, godzina 11:55 UTC
Wiatr 3 kt od południowo-południowy wschód
Temperatura 28°C
Wilgotność 45%
Ciśnienie 1013 hPa
Widzialność 10 km lub więcej
Brak chmur poniżej 1500 m i brak chmur cumulonimbus

METAR: LIQW 171155Z 15003KT CAVOK 28/15 Q1013 RMK SKC VIS MIN 9999 WIND THR18 15004KT BLU

czas: 15:09 (13:09 UTC)

Prognoza

Raport powstał 2 godziny i 9 minut temu, godzina 11:00 UTC
Prognoza ważna od 17 godzina 12 UTC do 17 godzina 21 UTC
Wiatr 5 kt od południowo-południowy wschód
Widzialność 10 km lub więcej
Brak chmur poniżej 1500 m i brak chmur cumulonimbus
Stopniowe zmiany
od 17 godzina 13 UTC do 17 godzina 15 UTC
Wiatr 10 kt od zachód

TAF: LIQW 171100Z 1712/1721 16005KT CAVOK BECMG 1713/1715 28010KT

Obserwacja i prognoza pogody dla ponad 4000 lotnisk (raport METAR i TAF).

Dostępne stacje oznaczono żółtymi i czerwonymi punktami na mapie.

Najedź kursorem aby zobaczyć nazwę stacji.

Kliknij aby zobaczyć obserwacje i prognozy pogody.

Aby zmienić mapę: kliknij na zielony przycisk z czarnym krzyżykiem, aby powiększyć; na zielony przycisk z myślnikiem, aby pomniejszyć; na zielone strzałki, aby przejść do map sąsiednich.


METAR-TAF: